AerodromSadržaj METAR izveštaja
LYBEMETAR LYBE 191130Z VRB03KT CAVOK 10/00 Q1021 NOSIG=
LYBTMETAR LYBT 191130Z 10002KT CAVOK 11/00 Q1021 NOSIG=
LYKVMETAR LYKV 191130Z VRB05KT 9999 FEW050 12/M01 Q1020 NOSIG=
LYNIMETAR LYNI 191130Z VRB07KT 9999 BKN040 09/M00 Q1020 NOSIG=
LYVRMETAR LYVR 191130Z VRB04KT 9999 SCT040 11/01 Q1021 NOSIG=
LYUZMETAR LYUZ 191130Z VRB03KT 9999 FEW023 06/M04 Q1019=
LYPGMETAR LYPG 191130Z 16005KT 140V210 9999 FEW040 BKN090 17/02 Q1018 NOSIG=
LYTVMETAR LYTV 191130Z 26005KT 200V300 9999 SCT040 15/08 Q1018 NOSIG=

Podaci učitani u: 2020-02-19 11:46:26 UTC

METAR, TAF, AIRMET, GAMET, SIGMET

Važna napomena: MET infоrmаciје nа оvim web strаnicаmа imајu infоrmаtivni kаrаktеr, nаmenjene su isključivo vаzduhоplоvnim kоrisnicima, nе smејu sе kоristiti zа bilо kоје kоmеrciјаlnе svrhе, i nе zаmеnjuјu dоkumеntаciјu zа lеt.